Time;durP1;ratioP1;P1;durP2;ratioP2;P2;SDS_P1;SDS_P2;PMS_P1;PMS_P2;Temp;Humidity;BMP_temperature;BMP_pressure;BME280_temperature;BME280_humidity;BME280_pressure;Samples;Min_cycle;Max_cycle;Signal;HPM_P1;HPM_P2
2022/04/11 00:01:30;;;;;;;;;;;;;;;;;;5036127;28;20012;-91
2022/04/11 00:04:17;;;;;;;;;;;;;;;;;;5024727;28;19909;-92
2022/04/11 00:07:03;;;;;;;;;;;;;;;;;;5023509;28;20297;-91
2022/04/11 00:09:50;;;;;;;;;;;;;;;;;;5029648;28;19913;-91
2022/04/11 00:12:37;;;;;;;;;;;;;;;;;;5033329;28;20364;-82
2022/04/11 00:15:24;;;;;;;;;;;;;;;;;;5019421;28;19916;-85
2022/04/11 00:18:10;;;;;;;;;;;;;;;;;;5014631;28;19913;-84
2022/04/11 00:20:57;;;;;;;;;;;;;;;;;;5022274;28;20199;-86
2022/04/11 00:23:43;;;;;;;;;;;;;;;;;;5026782;28;19936;-85
2022/04/11 00:26:30;;;;;;;;;;;;;;;;;;5026350;28;19909;-85
2022/04/11 00:29:16;;;;;;;;;;;;;;;;;;5028763;28;19925;-86
2022/04/11 00:32:02;;;;;;;;;;;;;;;;;;5032268;28;19924;-85
2022/04/11 00:34:49;;;;;;;;;;;;;;;;;;5030637;28;19913;-84
2022/04/11 00:37:37;;;;;;;;;;;;;;;;;;5033031;28;19916;-85
2022/04/11 00:40:23;;;;;;;;;;;;;;;;;;5015423;28;19923;-86
2022/04/11 00:43:10;;;;;;;;;;;;;;;;;;5033690;28;19917;-85
2022/04/11 00:45:56;;;;;;;;;;;;;;;;;;5024378;28;20300;-86
2022/04/11 00:48:43;;;;;;;;;;;;;;;;;;5049992;28;19915;-84
2022/04/11 00:51:29;;;;;;;;;;;;;;;;;;5032425;28;19917;-85
2022/04/11 00:54:16;;;;;;;;;;;;;;;;;;5018276;28;19913;-85
2022/04/11 00:57:02;;;;;;;;;;;;;;;;;;5016064;28;19914;-84
2022/04/11 00:59:48;;;;;;;;;;;;;;;;;;5022099;28;20380;-85
2022/04/11 01:02:35;;;;;;;;;;;;;;;;;;5029850;28;19913;-83
2022/04/11 01:05:21;;;;;;;;;;;;;;;;;;5030224;28;19909;-84
2022/04/11 01:08:08;;;;;;;;;;;;;;;;;;5017668;28;19910;-87
2022/04/11 01:10:54;;;;;;;;;;;;;;;;;;5031368;28;19919;-85
2022/04/11 01:13:44;;;;;;;;;;;;;;;;;;5033095;28;19928;-85
2022/04/11 01:16:30;;;;;;;;;;;;;;;;;;5018750;28;19913;-83
2022/04/11 01:19:17;;;;;;;;;;;;;;;;;;5031962;28;19909;-83
2022/04/11 01:22:03;;;;;;;;;;;;;;;;;;5029893;28;19913;-84
2022/04/11 01:24:50;;;;;;;;;;;;;;;;;;5020193;28;19916;-84
2022/04/11 01:27:36;;;;;;;;;;;;;;;;;;5031347;28;20312;-84
2022/04/11 01:30:23;;;;;;;;;;;;;;;;;;5001747;28;19924;-83
2022/04/11 01:33:09;;;;;;;;;;;;;;;;;;5008414;28;19930;-84
2022/04/11 01:35:56;;;;;;;;;;;;;;;;;;5007566;28;20473;-83
2022/04/11 01:38:42;;;;;;;;;;;;;;;;;;5002739;28;19916;-83
2022/04/11 01:41:29;;;;;;;;;;;;;;;;;;5001344;28;19909;-84
2022/04/11 01:44:15;;;;;;;;;;;;;;;;;;5010642;28;19913;-84
2022/04/11 01:47:01;;;;;;;;;;;;;;;;;;5021904;28;19932;-83
2022/04/11 01:49:48;;;;;;;;;;;;;;;;;;5036906;28;19910;-81
2022/04/11 01:52:34;;;;;;;;;;;;;;;;;;5014467;28;19918;-83
2022/04/11 01:55:21;;;;;;;;;;;;;;;;;;4996384;28;19910;-85
2022/04/11 01:58:07;;;;;;;;;;;;;;;;;;5003282;28;19913;-84
2022/04/11 02:00:55;;;;;;;;;;;;;;;;;;5020732;28;20266;-85
2022/04/11 02:03:41;;;;;;;;;;;;;;;;;;5011519;28;19916;-84
2022/04/11 02:06:28;;;;;;;;;;;;;;;;;;4998855;28;19910;-85
2022/04/11 02:09:14;;;;;;;;;;;;;;;;;;5005207;28;20253;-84
2022/04/11 02:12:00;;;;;;;;;;;;;;;;;;5004156;28;19924;-85
2022/04/11 02:14:47;;;;;;;;;;;;;;;;;;5011500;28;20494;-86
2022/04/11 02:17:33;;;;;;;;;;;;;;;;;;5011846;28;19916;-85
2022/04/11 02:20:20;;;;;;;;;;;;;;;;;;5016150;28;19917;-85
2022/04/11 02:23:06;;;;;;;;;;;;;;;;;;5012455;28;19918;-86
2022/04/11 02:25:53;;;;;;;;;;;;;;;;;;5014874;28;20272;-87
2022/04/11 02:28:39;;;;;;;;;;;;;;;;;;5019444;28;19921;-88
2022/04/11 02:31:26;;;;;;;;;;;;;;;;;;5031995;28;20436;-86
2022/04/11 02:34:12;;;;;;;;;;;;;;;;;;5050562;28;19916;-89
2022/04/11 02:36:59;;;;;;;;;;;;;;;;;;5034083;28;19936;-87
2022/04/11 02:39:45;;;;;;;;;;;;;;;;;;5029646;28;19920;-86
2022/04/11 02:42:32;;;;;;;;;;;;;;;;;;5030401;28;20365;-86
2022/04/11 02:45:19;;;;;;;;;;;;;;;;;;5032040;28;19917;-86
2022/04/11 02:48:06;;;;;;;;;;;;;;;;;;5021810;28;19919;-87
2022/04/11 02:50:53;;;;;;;;;;;;;;;;;;5024739;28;20350;-86
2022/04/11 02:53:40;;;;;;;;;;;;;;;;;;5035258;28;19927;-87
2022/04/11 02:56:26;;;;;;;;;;;;;;;;;;5027095;28;19924;-88
2022/04/11 02:59:13;;;;;;;;;;;;;;;;;;5051006;28;19920;-88
2022/04/11 03:01:59;;;;;;;;;;;;;;;;;;5021355;28;19939;-88
2022/04/11 03:04:46;;;;;;;;;;;;;;;;;;5036299;28;19909;-86
2022/04/11 03:07:32;;;;;;;;;;;;;;;;;;5041903;28;20292;-86
2022/04/11 03:10:19;;;;;;;;;;;;;;;;;;5020757;28;19917;-86
2022/04/11 03:13:05;;;;;;;;;;;;;;;;;;5021145;28;19924;-86
2022/04/11 03:15:52;;;;;;;;;;;;;;;;;;5032987;28;19924;-87
2022/04/11 03:18:40;;;;;;;;;;;;;;;;;;5026935;28;19920;-86
2022/04/11 03:21:26;;;;;;;;;;;;;;;;;;5028250;28;20227;-84
2022/04/11 03:24:13;;;;;;;;;;;;;;;;;;5033648;28;19917;-85
2022/04/11 03:26:59;;;;;;;;;;;;;;;;;;5019748;28;19940;-85
2022/04/11 03:29:46;;;;;;;;;;;;;;;;;;5022161;28;19925;-88
2022/04/11 03:32:32;;;;;;;;;;;;;;;;;;5022298;28;19925;-87
2022/04/11 03:35:19;;;;;;;;;;;;;;;;;;5034203;28;19913;-86
2022/04/11 03:38:05;;;;;;;;;;;;;;;;;;5022065;28;20258;-88
2022/04/11 03:40:52;;;;;;;;;;;;;;;;;;5023264;28;20243;-86
2022/04/11 03:43:38;;;;;;;;;;;;;;;;;;5036358;28;19920;-85
2022/04/11 03:46:27;;;;;;;;;;;;;;;;;;5033159;28;19913;-87
2022/04/11 03:49:14;;;;;;;;;;;;;;;;;;5018147;28;19917;-86
2022/04/11 03:52:00;;;;;;;;;;;;;;;;;;5022477;28;19913;-86
2022/04/11 03:54:47;;;;;;;;;;;;;;;;;;5017325;28;20259;-86
2022/04/11 03:57:33;;;;;;;;;;;;;;;;;;5027612;28;19920;-85
2022/04/11 04:00:20;;;;;;;;;;;;;;;;;;5027415;28;20384;-86
2022/04/11 04:03:06;;;;;;;;;;;;;;;;;;5028890;28;19918;-85
2022/04/11 04:05:53;;;;;;;;;;;;;;;;;;5021614;28;19910;-85
2022/04/11 04:08:39;;;;;;;;;;;;;;;;;;5022844;28;19909;-87
2022/04/11 04:11:26;;;;;;;;;;;;;;;;;;5019774;28;19924;-85
2022/04/11 04:14:12;;;;;;;;;;;;;;;;;;5022843;28;20365;-86
2022/04/11 04:16:59;;;;;;;;;;;;;;;;;;5029299;28;19921;-85
2022/04/11 04:19:45;;;;;;;;;;;;;;;;;;5038916;28;19909;-85
2022/04/11 04:22:32;;;;;;;;;;;;;;;;;;5007110;28;19913;-85
2022/04/11 04:25:18;;;;;;;;;;;;;;;;;;5017937;28;20328;-86
2022/04/11 04:28:05;;;;;;;;;;;;;;;;;;5032743;28;19929;-85
2022/04/11 04:30:51;;;;;;;;;;;;;;;;;;5026583;28;19936;-85
2022/04/11 04:33:38;;;;;;;;;;;;;;;;;;5032237;28;19921;-85
2022/04/11 04:36:25;;;;;;;;;;;;;;;;;;5034776;28;19913;-87
2022/04/11 04:39:11;;;;;;;;;;;;;;;;;;5037518;28;19908;-85
2022/04/11 04:41:58;;;;;;;;;;;;;;;;;;5023483;28;20281;-85
2022/04/11 04:44:44;;;;;;;;;;;;;;;;;;5030436;28;19909;-86
2022/04/11 04:47:30;;;;;;;;;;;;;;;;;;5018866;28;20306;-86
2022/04/11 04:50:17;;;;;;;;;;;;;;;;;;5039606;28;19917;-86
2022/04/11 04:53:03;;;;;;;;;;;;;;;;;;5031965;28;19923;-85
2022/04/11 04:55:50;;;;;;;;;;;;;;;;;;5035357;28;19936;-85
2022/04/11 04:58:36;;;;;;;;;;;;;;;;;;5020909;28;20055;-86
2022/04/11 05:01:23;;;;;;;;;;;;;;;;;;5030842;28;19913;-84
2022/04/11 05:04:10;;;;;;;;;;;;;;;;;;5029421;28;20375;-84
2022/04/11 05:06:56;;;;;;;;;;;;;;;;;;5017843;28;19910;-86
2022/04/11 05:09:43;;;;;;;;;;;;;;;;;;5029902;28;19909;-86
2022/04/11 05:12:29;;;;;;;;;;;;;;;;;;5025670;28;19920;-88
2022/04/11 05:15:15;;;;;;;;;;;;;;;;;;5031581;28;19920;-88
2022/04/11 05:18:02;;;;;;;;;;;;;;;;;;5043322;28;19932;-85
2022/04/11 05:20:51;;;;;;;;;;;;;;;;;;5023054;28;19920;-85
2022/04/11 05:23:37;;;;;;;;;;;;;;;;;;5030523;28;19916;-86
2022/04/11 05:26:23;;;;;;;;;;;;;;;;;;5024347;28;20285;-85
2022/04/11 05:29:10;;;;;;;;;;;;;;;;;;5024921;28;19921;-88
2022/04/11 05:31:56;;;;;;;;;;;;;;;;;;5008830;28;20300;-83
2022/04/11 05:34:43;;;;;;;;;;;;;;;;;;5034382;28;19916;-86
2022/04/11 05:37:29;;;;;;;;;;;;;;;;;;5024810;28;19914;-84
2022/04/11 05:40:16;;;;;;;;;;;;;;;;;;5020246;28;20154;-84
2022/04/11 05:43:02;;;;;;;;;;;;;;;;;;5012882;28;19913;-84
2022/04/11 05:45:49;;;;;;;;;;;;;;;;;;5029601;28;19936;-86
2022/04/11 05:48:35;;;;;;;;;;;;;;;;;;5016941;28;19919;-86
2022/04/11 05:51:22;;;;;;;;;;;;;;;;;;5014729;28;19939;-88
2022/04/11 05:54:08;;;;;;;;;;;;;;;;;;5023386;28;19985;-83
2022/04/11 05:56:55;;;;;;;;;;;;;;;;;;5017161;28;19913;-83
2022/04/11 05:59:41;;;;;;;;;;;;;;;;;;5017882;28;20304;-86
2022/04/11 06:02:28;;;;;;;;;;;;;;;;;;5005443;28;19920;-86
2022/04/11 06:05:14;;;;;;;;;;;;;;;;;;5014851;28;19913;-86
2022/04/11 06:08:01;;;;;;;;;;;;;;;;;;5024655;28;19917;-87
2022/04/11 06:10:47;;;;;;;;;;;;;;;;;;5024613;28;19951;-90
2022/04/11 06:13:34;;;;;;;;;;;;;;;;;;5015054;28;19917;-89
2022/04/11 06:16:20;;;;;;;;;;;;;;;;;;5010174;28;19921;-87
2022/04/11 06:19:07;;;;;;;;;;;;;;;;;;5022814;28;19921;-88
2022/04/11 06:21:53;;;;;;;;;;;;;;;;;;5041284;28;19924;-88
2022/04/11 06:24:40;;;;;;;;;;;;;;;;;;5054103;28;19909;-89
2022/04/11 06:27:26;;;;;;;;;;;;;;;;;;5031059;28;19914;-89
2022/04/11 06:30:13;;;;;;;;;;;;;;;;;;5020118;28;19932;-89
2022/04/11 06:32:59;;;;;;;;;;;;;;;;;;5032273;28;19932;-88
2022/04/11 06:35:46;;;;;;;;;;;;;;;;;;5039823;28;19921;-88
2022/04/11 06:38:33;;;;;;;;;;;;;;;;;;5037923;28;19913;-89
2022/04/11 06:41:19;;;;;;;;;;;;;;;;;;5042033;28;20622;-89
2022/04/11 06:44:06;;;;;;;;;;;;;;;;;;5029019;28;19910;-88
2022/04/11 06:46:52;;;;;;;;;;;;;;;;;;5023229;28;19910;-89
2022/04/11 06:49:39;;;;;;;;;;;;;;;;;;5025392;28;19927;-90
2022/04/11 06:52:25;;;;;;;;;;;;;;;;;;5018098;28;19925;-89
2022/04/11 06:55:11;;;;;;;;;;;;;;;;;;5025223;28;19979;-85
2022/04/11 06:57:58;;;;;;;;;;;;;;;;;;5021446;28;19910;-88
2022/04/11 07:00:44;;;;;;;;;;;;;;;;;;5045975;28;19908;-90
2022/04/11 07:03:32;;;;;;;;;;;;;;;;;;5043619;28;20310;-90
2022/04/11 07:06:18;;;;;;;;;;;;;;;;;;5036598;28;19910;-91
2022/04/11 07:09:04;;;;;;;;;;;;;;;;;;5041427;28;19908;-89
2022/04/11 07:11:51;;;;;;;;;;;;;;;;;;5018424;28;19910;-89
2022/04/11 07:14:37;;;;;;;;;;;;;;;;;;5043400;28;20578;-90
2022/04/11 07:17:24;;;;;;;;;;;;;;;;;;5040063;28;19916;-89
2022/04/11 07:20:10;;;;;;;;;;;;;;;;;;5019000;28;20373;-90
2022/04/11 07:22:57;;;;;;;;;;;;;;;;;;5032236;28;19909;-89
2022/04/11 07:25:43;;;;;;;;;;;;;;;;;;5037186;28;19920;-91
2022/04/11 07:28:30;;;;;;;;;;;;;;;;;;5023921;28;19928;-89
2022/04/11 07:31:16;;;;;;;;;;;;;;;;;;5008055;28;19914;-89
2022/04/11 07:34:03;;;;;;;;;;;;;;;;;;5018720;28;19925;-89
2022/04/11 07:36:49;;;;;;;;;;;;;;;;;;5007328;28;19917;-89
2022/04/11 07:39:36;;;;;;;;;;;;;;;;;;5016739;28;19924;-88
2022/04/11 07:42:22;;;;;;;;;;;;;;;;;;5012211;28;19909;-89
2022/04/11 07:45:09;;;;;;;;;;;;;;;;;;5022199;28;19920;-91
2022/04/11 07:47:55;;;;;;;;;;;;;;;;;;5010523;28;20281;-92
2022/04/11 07:50:42;;;;;;;;;;;;;;;;;;5030483;28;19989;-88
2022/04/11 07:53:31;;;;;;;;;;;;;;;;;;5017113;28;19940;-89
2022/04/11 07:56:17;;;;;;;;;;;;;;;;;;5024168;28;19913;-90
2022/04/11 07:59:03;;;;;;;;;;;;;;;;;;5011400;28;20296;-90
2022/04/11 08:01:52;;;;;;;;;;;;;;;;;;5025821;28;19914;-89
2022/04/11 08:04:38;;;;;;;;;;;;;;;;;;5029042;28;19916;-88
2022/04/11 08:07:25;;;;;;;;;;;;;;;;;;5018675;28;19913;-89
2022/04/11 08:10:11;;;;;;;;;;;;;;;;;;5010300;28;20337;-90
2022/04/11 08:12:58;;;;;;;;;;;;;;;;;;5020699;28;19928;-89
2022/04/11 08:15:44;;;;;;;;;;;;;;;;;;5016666;28;19919;-89
2022/04/11 08:18:31;;;;;;;;;;;;;;;;;;5005049;28;20349;-88
2022/04/11 08:21:17;;;;;;;;;;;;;;;;;;5019999;28;20122;-91
2022/04/11 08:24:04;;;;;;;;;;;;;;;;;;5023489;28;19910;-90
2022/04/11 08:26:50;;;;;;;;;;;;;;;;;;5012248;28;19920;-90
2022/04/11 08:29:37;;;;;;;;;;;;;;;;;;5024720;28;19926;-92
2022/04/11 08:32:23;;;;;;;;;;;;;;;;;;5034009;28;19917;-89
2022/04/11 08:35:10;;;;;;;;;;;;;;;;;;5034250;28;19917;-91
2022/04/11 08:37:56;;;;;;;;;;;;;;;;;;5032633;28;19916;-91
2022/04/11 08:40:43;;;;;;;;;;;;;;;;;;5028734;28;19919;-90
2022/04/11 08:43:29;;;;;;;;;;;;;;;;;;5026748;28;19913;-90
2022/04/11 08:46:17;;;;;;;;;;;;;;;;;;5035266;28;19909;-90
2022/04/11 08:49:03;;;;;;;;;;;;;;;;;;5020424;28;19919;-91
2022/04/11 08:51:50;;;;;;;;;;;;;;;;;;5033236;28;20394;-90
2022/04/11 08:54:36;;;;;;;;;;;;;;;;;;5027334;28;19928;-90
2022/04/11 08:57:23;;;;;;;;;;;;;;;;;;5022244;28;20305;-91
2022/04/11 09:00:09;;;;;;;;;;;;;;;;;;5023965;28;20387;-90
2022/04/11 09:02:56;;;;;;;;;;;;;;;;;;5028754;28;19913;-90
2022/04/11 09:05:42;;;;;;;;;;;;;;;;;;5039687;28;19913;-90
2022/04/11 09:08:29;;;;;;;;;;;;;;;;;;5038989;28;19921;-90
2022/04/11 09:11:15;;;;;;;;;;;;;;;;;;5021650;28;19909;-90
2022/04/11 09:14:02;;;;;;;;;;;;;;;;;;5029455;28;19932;-90
2022/04/11 09:16:48;;;;;;;;;;;;;;;;;;5031758;28;19924;-91
2022/04/11 09:19:35;;;;;;;;;;;;;;;;;;5034425;28;19909;-91
2022/04/11 09:22:21;;;;;;;;;;;;;;;;;;5024128;28;19914;-90
2022/04/11 09:25:08;;;;;;;;;;;;;;;;;;5022562;28;19917;-90
2022/04/11 09:27:54;;;;;;;;;;;;;;;;;;5026014;28;19917;-90
2022/04/11 09:30:43;;;;;;;;;;;;;;;;;;5024369;28;20491;-89
2022/04/11 09:33:30;;;;;;;;;;;;;;;;;;5025569;28;20375;-90
2022/04/11 09:36:16;;;;;;;;;;;;;;;;;;5024429;28;19914;-85
2022/04/11 09:39:03;;;;;;;;;;;;;;;;;;5022058;28;19924;-87
2022/04/11 09:41:49;;;;;;;;;;;;;;;;;;5012447;28;20299;-85
2022/04/11 09:44:36;;;;;;;;;;;;;;;;;;5017057;28;19917;-84
2022/04/11 09:47:22;;;;;;;;;;;;;;;;;;5017262;28;19913;-86
2022/04/11 09:50:11;;;;;;;;;;;;;;;;;;5012347;28;19913;-86
2022/04/11 09:52:57;;;;;;;;;;;;;;;;;;5027170;28;19944;-85
2022/04/11 09:55:44;;;;;;;;;;;;;;;;;;5027748;28;20288;-85
2022/04/11 09:58:30;;;;;;;;;;;;;;;;;;5024019;28;19914;-86
2022/04/11 10:01:17;;;;;;;;;;;;;;;;;;5034936;28;19909;-86
2022/04/11 10:04:03;;;;;;;;;;;;;;;;;;5022407;28;19920;-85
2022/04/11 10:06:50;;;;;;;;;;;;;;;;;;5018360;28;19913;-88
2022/04/11 10:09:36;;;;;;;;;;;;;;;;;;5032004;28;19916;-87
2022/04/11 10:12:23;;;;;;;;;;;;;;;;;;5025110;28;19924;-86
2022/04/11 10:15:09;;;;;;;;;;;;;;;;;;5032311;28;19909;-86
2022/04/11 10:17:56;;;;;;;;;;;;;;;;;;5018583;28;19910;-86
2022/04/11 10:20:42;;;;;;;;;;;;;;;;;;5025023;28;19917;-87
2022/04/11 10:23:29;;;;;;;;;;;;;;;;;;5019477;28;19914;-86
2022/04/11 10:26:16;;;;;;;;;;;;;;;;;;5022729;28;19932;-85
2022/04/11 10:29:02;;;;;;;;;;;;;;;;;;5024237;28;19925;-86
2022/04/11 10:31:49;;;;;;;;;;;;;;;;;;5003336;28;19913;-87
2022/04/11 10:34:35;;;;;;;;;;;;;;;;;;5014426;28;19917;-86
2022/04/11 10:37:22;;;;;;;;;;;;;;;;;;4998169;28;20643;-86
2022/04/11 10:40:08;;;;;;;;;;;;;;;;;;4998220;28;19922;-86
2022/04/11 10:42:55;;;;;;;;;;;;;;;;;;4999151;28;19925;-85
2022/04/11 10:45:42;;;;;;;;;;;;;;;;;;5004082;28;19920;-85
2022/04/11 10:48:28;;;;;;;;;;;;;;;;;;5000155;28;19921;-88
2022/04/11 10:51:18;;;;;;;;;;;;;;;;;;5002609;28;20303;-86
2022/04/11 10:54:04;;;;;;;;;;;;;;;;;;5002982;28;20386;-86
2022/04/11 10:56:51;;;;;;;;;;;;;;;;;;5004102;28;19918;-87
2022/04/11 10:59:37;;;;;;;;;;;;;;;;;;5002451;28;20372;-86
2022/04/11 11:02:24;;;;;;;;;;;;;;;;;;5006987;28;19918;-87
2022/04/11 11:05:10;;;;;;;;;;;;;;;;;;5002115;28;19910;-87
2022/04/11 11:07:57;;;;;;;;;;;;;;;;;;5003281;28;20389;-87
2022/04/11 11:10:43;;;;;;;;;;;;;;;;;;5001710;28;19917;-88
2022/04/11 11:13:30;;;;;;;;;;;;;;;;;;4996770;28;19922;-88
2022/04/11 11:16:17;;;;;;;;;;;;;;;;;;4995948;28;19910;-86
2022/04/11 11:19:04;;;;;;;;;;;;;;;;;;5000671;28;20382;-85
2022/04/11 11:21:53;;;;;;;;;;;;;;;;;;5001194;28;19917;-86
2022/04/11 11:24:40;;;;;;;;;;;;;;;;;;5005971;28;19915;-87
2022/04/11 11:27:28;;;;;;;;;;;;;;;;;;5007662;28;20422;-86
2022/04/11 11:30:14;;;;;;;;;;;;;;;;;;5013879;28;19925;-85
2022/04/11 11:33:01;;;;;;;;;;;;;;;;;;5016102;28;19928;-83
2022/04/11 11:35:48;;;;;;;;;;;;;;;;;;5023187;28;19939;-85
2022/04/11 11:38:34;;;;;;;;;;;;;;;;;;5015810;28;19910;-85
2022/04/11 11:41:21;;;;;;;;;;;;;;;;;;5033331;28;19913;-84
2022/04/11 11:44:07;;;;;;;;;;;;;;;;;;5032276;28;19917;-85
2022/04/11 11:46:54;;;;;;;;;;;;;;;;;;5030613;28;19897;-91
2022/04/11 11:49:40;;;;;;;;;;;;;;;;;;5037041;28;20356;-87
2022/04/11 11:52:26;;;;;;;;;;;;;;;;;;5024021;28;19910;-87
2022/04/11 11:55:13;;;;;;;;;;;;;;;;;;5019607;28;19921;-87
2022/04/11 11:57:59;;;;;;;;;;;;;;;;;;5026268;28;19920;-88
2022/04/11 12:00:47;;;;;;;;;;;;;;;;;;5033184;28;19913;-88
2022/04/11 12:06:38;;;;;;;;;;;;;;;;;;5026285;28;19921;-89
2022/04/11 12:09:25;;;;;;;;;;;;;;;;;;5037804;28;19909;-91
2022/04/11 12:12:12;;;;;;;;;;;;;;;;;;5025555;28;19981;-90
2022/04/11 12:14:58;;;;;;;;;;;;;;;;;;5028406;28;19929;-89
2022/04/11 12:17:45;;;;;;;;;;;;;;;;;;5026588;28;19909;-89
2022/04/11 12:20:31;;;;;;;;;;;;;;;;;;5026947;28;19909;-89
2022/04/11 12:23:18;;;;;;;;;;;;;;;;;;5020310;28;20259;-89
2022/04/11 12:26:04;;;;;;;;;;;;;;;;;;5023663;28;19916;-88
2022/04/11 12:28:51;;;;;;;;;;;;;;;;;;5035000;28;19931;-88
2022/04/11 12:31:39;;;;;;;;;;;;;;;;;;5026275;28;20392;-88
2022/04/11 12:34:25;;;;;;;;;;;;;;;;;;5030776;28;19921;-91
2022/04/11 12:37:12;;;;;;;;;;;;;;;;;;5027593;28;19913;-90
2022/04/11 12:40:01;;;;;;;;;;;;;;;;;;5021443;28;19913;-89
2022/04/11 12:42:48;;;;;;;;;;;;;;;;;;5018949;28;20404;-88
2022/04/11 12:45:34;;;;;;;;;;;;;;;;;;5009091;28;19917;-88
2022/04/11 12:48:21;;;;;;;;;;;;;;;;;;5028922;28;19920;-89
2022/04/11 12:51:07;;;;;;;;;;;;;;;;;;5024156;28;19932;-89
2022/04/11 12:53:54;;;;;;;;;;;;;;;;;;5027464;28;19927;-89
2022/04/11 12:56:40;;;;;;;;;;;;;;;;;;5024727;28;19909;-86
2022/04/11 12:59:27;;;;;;;;;;;;;;;;;;5023112;28;19915;-91
2022/04/11 13:02:14;;;;;;;;;;;;;;;;;;5027272;28;19909;-90
2022/04/11 13:05:02;;;;;;;;;;;;;;;;;;5030111;28;19929;-91
2022/04/11 13:07:48;;;;;;;;;;;;;;;;;;5014464;28;20281;-89
2022/04/11 13:10:35;;;;;;;;;;;;;;;;;;5035446;28;19915;-90
2022/04/11 13:13:21;;;;;;;;;;;;;;;;;;5023194;28;20289;-90
2022/04/11 13:19:13;;;;;;;;;;;;;;;;;;5030388;28;19918;-89
2022/04/11 13:22:00;;;;;;;;;;;;;;;;;;5032884;28;20060;-89
2022/04/11 13:24:48;;;;;;;;;;;;;;;;;;5032604;28;19910;-90
2022/04/11 13:27:35;;;;;;;;;;;;;;;;;;5037429;28;19909;-90
2022/04/11 13:30:21;;;;;;;;;;;;;;;;;;5039604;28;19922;-90
2022/04/11 13:33:07;;;;;;;;;;;;;;;;;;5034460;28;19925;-91
2022/04/11 13:35:56;;;;;;;;;;;;;;;;;;5028485;28;19909;-91
2022/04/11 13:38:44;;;;;;;;;;;;;;;;;;5019107;28;19929;-89
2022/04/11 13:41:30;;;;;;;;;;;;;;;;;;5023467;28;19923;-90
2022/04/11 13:44:17;;;;;;;;;;;;;;;;;;5020162;28;19922;-91
2022/04/11 13:47:03;;;;;;;;;;;;;;;;;;5029327;28;19919;-89
2022/04/11 13:49:50;;;;;;;;;;;;;;;;;;5024394;28;20408;-90
2022/04/11 13:52:37;;;;;;;;;;;;;;;;;;5031021;28;19920;-89
2022/04/11 13:55:24;;;;;;;;;;;;;;;;;;5030312;28;19928;-90
2022/04/11 13:58:11;;;;;;;;;;;;;;;;;;5027996;28;19909;-88
2022/04/11 14:00:58;;;;;;;;;;;;;;;;;;5026796;28;19951;-88
2022/04/11 14:03:44;;;;;;;;;;;;;;;;;;5021840;28;19913;-90
2022/04/11 14:06:31;;;;;;;;;;;;;;;;;;5023555;28;19928;-90
2022/04/11 14:09:17;;;;;;;;;;;;;;;;;;5011493;28;19914;-90
2022/04/11 14:12:04;;;;;;;;;;;;;;;;;;5022433;28;19913;-89
2022/04/11 14:14:50;;;;;;;;;;;;;;;;;;5015838;28;20292;-89
2022/04/11 14:17:37;;;;;;;;;;;;;;;;;;5019406;28;19920;-89
2022/04/11 14:20:24;;;;;;;;;;;;;;;;;;5022188;28;20395;-88
2022/04/11 14:23:10;;;;;;;;;;;;;;;;;;5015439;28;20278;-87
2022/04/11 14:25:57;;;;;;;;;;;;;;;;;;5019252;28;19924;-89
2022/04/11 14:28:43;;;;;;;;;;;;;;;;;;5022400;28;19918;-89
2022/04/11 14:31:29;;;;;;;;;;;;;;;;;;5000380;28;19933;-87
2022/04/11 14:34:16;;;;;;;;;;;;;;;;;;5007141;28;19944;-87
2022/04/11 14:37:02;;;;;;;;;;;;;;;;;;4989138;28;19914;-90
2022/04/11 14:39:49;;;;;;;;;;;;;;;;;;4999771;28;19917;-91
2022/04/11 14:42:35;;;;;;;;;;;;;;;;;;5015356;28;19920;-91
2022/04/11 14:45:22;;;;;;;;;;;;;;;;;;5016649;28;19932;-91
2022/04/11 14:48:08;;;;;;;;;;;;;;;;;;5005758;28;20360;-92
2022/04/11 14:50:55;;;;;;;;;;;;;;;;;;5009680;28;19910;-93
2022/04/11 14:53:42;;;;;;;;;;;;;;;;;;5024155;28;20399;-91
2022/04/11 14:56:28;;;;;;;;;;;;;;;;;;5004398;28;20400;-90
2022/04/11 14:59:15;;;;;;;;;;;;;;;;;;5010362;28;19916;-90
2022/04/11 15:02:01;;;;;;;;;;;;;;;;;;5000480;28;19936;-92
2022/04/11 15:04:48;;;;;;;;;;;;;;;;;;5012647;28;19920;-88
2022/04/11 15:07:34;;;;;;;;;;;;;;;;;;5017650;28;20368;-93
2022/04/11 15:10:21;;;;;;;;;;;;;;;;;;5012827;28;19937;-90
2022/04/11 15:13:09;;;;;;;;;;;;;;;;;;5010959;28;19924;-89
2022/04/11 15:15:55;;;;;;;;;;;;;;;;;;5007368;28;19920;-89
2022/04/11 15:18:42;;;;;;;;;;;;;;;;;;5004284;28;19925;-87
2022/04/11 15:21:28;;;;;;;;;;;;;;;;;;5016411;28;19913;-88
2022/04/11 15:24:15;;;;;;;;;;;;;;;;;;5004420;28;19910;-89
2022/04/11 15:27:02;;;;;;;;;;;;;;;;;;5008584;28;19910;-89
2022/04/11 15:29:48;;;;;;;;;;;;;;;;;;5024979;28;20324;-88
2022/04/11 15:32:35;;;;;;;;;;;;;;;;;;5041025;28;20315;-89
2022/04/11 15:35:21;;;;;;;;;;;;;;;;;;5053715;28;19917;-88
2022/04/11 15:38:08;;;;;;;;;;;;;;;;;;5030572;28;20283;-87
2022/04/11 15:40:54;;;;;;;;;;;;;;;;;;5033611;28;20413;-89
2022/04/11 15:43:42;;;;;;;;;;;;;;;;;;5034761;28;19913;-89
2022/04/11 15:46:28;;;;;;;;;;;;;;;;;;5026564;28;20365;-88
2022/04/11 15:49:15;;;;;;;;;;;;;;;;;;5032419;28;19913;-89
2022/04/11 15:52:01;;;;;;;;;;;;;;;;;;5029705;28;19930;-88
2022/04/11 15:54:48;;;;;;;;;;;;;;;;;;5026658;28;19928;-87
2022/04/11 15:57:34;;;;;;;;;;;;;;;;;;5037520;28;19909;-89
2022/04/11 16:00:21;;;;;;;;;;;;;;;;;;5007628;28;19909;-89
2022/04/11 16:03:09;;;;;;;;;;;;;;;;;;5045207;28;19921;-88
2022/04/11 16:05:59;;;;;;;;;;;;;;;;;;5035042;28;19910;-89
2022/04/11 16:08:45;;;;;;;;;;;;;;;;;;5037941;28;19913;-88
2022/04/11 16:11:32;;;;;;;;;;;;;;;;;;5020828;28;19909;-89
2022/04/11 16:14:18;;;;;;;;;;;;;;;;;;5040812;28;19920;-89
2022/04/11 16:17:05;;;;;;;;;;;;;;;;;;5036181;28;19910;-88
2022/04/11 16:19:51;;;;;;;;;;;;;;;;;;5051890;28;19913;-88
2022/04/11 16:22:37;;;;;;;;;;;;;;;;;;5038436;28;19915;-88
2022/04/11 16:25:24;;;;;;;;;;;;;;;;;;5031947;28;19909;-88
2022/04/11 16:28:10;;;;;;;;;;;;;;;;;;5020135;28;20416;-86
2022/04/11 16:30:57;;;;;;;;;;;;;;;;;;5018991;28;19917;-90
2022/04/11 16:33:43;;;;;;;;;;;;;;;;;;5047928;28;20384;-91
2022/04/11 16:36:30;;;;;;;;;;;;;;;;;;5032578;28;19923;-90
2022/04/11 16:39:16;;;;;;;;;;;;;;;;;;5031255;28;20303;-90
2022/04/11 16:42:03;;;;;;;;;;;;;;;;;;5032339;28;19916;-89
2022/04/11 16:44:49;;;;;;;;;;;;;;;;;;5031401;28;20284;-90
2022/04/11 16:47:36;;;;;;;;;;;;;;;;;;5023667;28;19943;-89
2022/04/11 16:50:23;;;;;;;;;;;;;;;;;;5053131;28;19908;-90
2022/04/11 16:53:09;;;;;;;;;;;;;;;;;;5024990;28;19920;-89
2022/04/11 16:55:56;;;;;;;;;;;;;;;;;;5049740;28;19913;-89
2022/04/11 16:58:43;;;;;;;;;;;;;;;;;;5044144;28;19924;-89
2022/04/11 17:01:29;;;;;;;;;;;;;;;;;;5044032;28;20059;-89
2022/04/11 17:04:16;;;;;;;;;;;;;;;;;;5033587;28;19909;-88
2022/04/11 17:07:02;;;;;;;;;;;;;;;;;;5035032;28;20250;-90
2022/04/11 17:09:49;;;;;;;;;;;;;;;;;;5032924;28;19913;-91
2022/04/11 17:12:35;;;;;;;;;;;;;;;;;;5025101;28;19916;-91
2022/04/11 17:18:30;;;;;;;;;;;;;;;;;;5044773;28;19910;-88
2022/04/11 17:21:17;;;;;;;;;;;;;;;;;;5030468;28;19931;-90
2022/04/11 17:24:05;;;;;;;;;;;;;;;;;;5034779;28;19913;-90
2022/04/11 17:26:55;;;;;;;;;;;;;;;;;;5034420;28;19916;-88
2022/04/11 17:29:41;;;;;;;;;;;;;;;;;;5034965;28;19993;-90
2022/04/11 17:32:28;;;;;;;;;;;;;;;;;;5017633;28;19923;-90
2022/04/11 17:35:14;;;;;;;;;;;;;;;;;;5023566;28;19932;-81
2022/04/11 17:38:00;;;;;;;;;;;;;;;;;;5017781;28;19917;-84
2022/04/11 17:40:51;;;;;;;;;;;;;;;;;;5030165;28;20383;-85
2022/04/11 17:43:37;;;;;;;;;;;;;;;;;;5023856;28;19915;-86
2022/04/11 17:46:24;;;;;;;;;;;;;;;;;;5034220;28;20289;-82
2022/04/11 17:49:10;;;;;;;;;;;;;;;;;;5026053;28;19917;-83
2022/04/11 17:51:57;;;;;;;;;;;;;;;;;;5018228;28;19909;-85
2022/04/11 17:54:43;;;;;;;;;;;;;;;;;;5015565;28;19918;-83
2022/04/11 17:57:30;;;;;;;;;;;;;;;;;;5013100;28;20665;-84
2022/04/11 18:00:17;;;;;;;;;;;;;;;;;;5033325;28;19924;-85
2022/04/11 18:03:07;;;;;;;;;;;;;;;;;;5018458;28;19920;-82
2022/04/11 18:05:53;;;;;;;;;;;;;;;;;;5015350;28;19940;-90
2022/04/11 18:08:41;;;;;;;;;;;;;;;;;;5018536;28;19923;-83
2022/04/11 18:11:28;;;;;;;;;;;;;;;;;;5014728;28;20403;-87
2022/04/11 18:14:15;;;;;;;;;;;;;;;;;;5011670;28;19924;-87
2022/04/11 18:17:02;;;;;;;;;;;;;;;;;;5019365;28;20254;-85
2022/04/11 18:19:48;;;;;;;;;;;;;;;;;;5023747;28;19920;-83
2022/04/11 18:22:35;;;;;;;;;;;;;;;;;;5021281;28;19909;-84
2022/04/11 18:25:21;;;;;;;;;;;;;;;;;;5021325;28;19909;-85
2022/04/11 18:31:31;;;;;;;;;;;;;;;;;;5032670;28;19925;-83
2022/04/11 18:34:17;;;;;;;;;;;;;;;;;;5023149;28;19923;-84
2022/04/11 18:37:04;;;;;;;;;;;;;;;;;;5045717;28;19917;-82
2022/04/11 18:39:51;;;;;;;;;;;;;;;;;;5036498;28;19921;-85
2022/04/11 18:42:37;;;;;;;;;;;;;;;;;;5021282;28;19917;-84
2022/04/11 18:45:27;;;;;;;;;;;;;;;;;;5023177;28;19920;-83
2022/04/11 18:48:13;;;;;;;;;;;;;;;;;;5021611;28;19917;-83
2022/04/11 18:51:01;;;;;;;;;;;;;;;;;;5025078;28;19921;-85
2022/04/11 18:53:47;;;;;;;;;;;;;;;;;;5021130;28;19922;-84
2022/04/11 18:56:34;;;;;;;;;;;;;;;;;;5020737;28;19917;-86
2022/04/11 18:59:20;;;;;;;;;;;;;;;;;;5019901;28;19921;-85
2022/04/11 19:02:07;;;;;;;;;;;;;;;;;;5020822;28;19917;-87
2022/04/11 19:04:55;;;;;;;;;;;;;;;;;;5020320;28;19916;-87
2022/04/11 19:07:41;;;;;;;;;;;;;;;;;;5020495;28;20028;-88
2022/04/11 19:10:28;;;;;;;;;;;;;;;;;;5020450;28;19916;-88